createdAt,value
2017-05-15T00:00:07.626Z,0
2017-05-15T00:01:08.861Z,0
2017-05-15T00:02:10.136Z,0
2017-05-15T00:03:11.446Z,0
2017-05-15T00:04:13.056Z,0
2017-05-15T00:05:14.259Z,0
2017-05-15T00:06:15.502Z,0
2017-05-15T00:07:16.763Z,0
2017-05-15T00:08:18.160Z,0
2017-05-15T00:09:19.455Z,0
2017-05-15T00:10:20.740Z,0
2017-05-15T00:11:22.013Z,0
2017-05-15T00:12:23.308Z,0
2017-05-15T00:13:24.581Z,0
2017-05-15T00:14:25.858Z,0
2017-05-15T00:15:27.134Z,0
2017-05-15T00:16:28.412Z,0
2017-05-15T00:17:29.736Z,0
2017-05-15T00:18:30.999Z,0
2017-05-15T00:19:32.253Z,0
2017-05-15T00:20:33.566Z,0
2017-05-15T00:21:34.821Z,0
2017-05-15T00:22:36.078Z,0
2017-05-15T00:23:37.341Z,0
2017-05-15T00:24:38.582Z,0
2017-05-15T00:25:39.850Z,0
2017-05-15T00:26:41.178Z,0
2017-05-15T00:27:42.424Z,0
2017-05-15T00:28:43.744Z,0
2017-05-15T00:29:44.992Z,0
2017-05-15T00:30:46.250Z,0
2017-05-15T00:31:47.511Z,0
2017-05-15T00:32:48.736Z,0
2017-05-15T00:33:49.997Z,0
2017-05-15T00:34:51.260Z,0
2017-05-15T00:35:52.526Z,0
2017-05-15T00:36:53.766Z,0
2017-05-15T00:37:55.025Z,0
2017-05-15T00:38:56.470Z,0
2017-05-15T00:39:57.696Z,0
2017-05-15T00:40:58.963Z,0
2017-05-15T00:42:00.205Z,0
2017-05-15T00:43:01.524Z,0
2017-05-15T00:44:02.770Z,0
2017-05-15T00:45:04.099Z,0
2017-05-15T00:46:05.340Z,0
2017-05-15T00:47:06.625Z,0
2017-05-15T00:48:07.865Z,0
2017-05-15T00:49:09.113Z,0
2017-05-15T00:50:10.388Z,0
2017-05-15T00:51:11.701Z,0
2017-05-15T00:52:12.954Z,0
2017-05-15T00:53:14.201Z,0
2017-05-15T00:54:15.472Z,0
2017-05-15T00:55:16.732Z,0
2017-05-15T00:56:17.998Z,0
2017-05-15T00:57:19.251Z,0
2017-05-15T00:58:20.479Z,0
2017-05-15T00:59:21.788Z,0
2017-05-15T01:00:23.081Z,0
2017-05-15T01:01:24.313Z,0
2017-05-15T01:02:25.591Z,0
2017-05-15T01:03:26.840Z,0
2017-05-15T01:04:28.081Z,0
2017-05-15T01:05:29.336Z,0
2017-05-15T01:06:30.623Z,0
2017-05-15T01:07:31.862Z,0
2017-05-15T01:08:33.107Z,0
2017-05-15T01:09:34.528Z,0
2017-05-15T01:10:35.773Z,0
2017-05-15T01:11:37.151Z,0
2017-05-15T01:12:38.399Z,0
2017-05-15T01:13:39.648Z,0
2017-05-15T01:14:40.915Z,0
2017-05-15T01:15:42.244Z,0
2017-05-15T01:16:43.521Z,0
2017-05-15T01:17:44.770Z,0
2017-05-15T01:18:46.049Z,0
2017-05-15T01:19:47.396Z,0
2017-05-15T01:20:48.629Z,0
2017-05-15T01:21:49.912Z,0
2017-05-15T01:22:51.188Z,0
2017-05-15T01:23:52.422Z,0
2017-05-15T01:24:53.744Z,0
2017-05-15T01:25:55.066Z,0
2017-05-15T01:26:56.313Z,0
2017-05-15T01:27:57.662Z,0
2017-05-15T01:28:59.042Z,0
2017-05-15T01:30:00.296Z,0
2017-05-15T01:31:01.565Z,0
2017-05-15T01:32:02.857Z,0
2017-05-15T01:33:04.075Z,0
2017-05-15T01:34:05.374Z,0
2017-05-15T01:35:06.667Z,0
2017-05-15T01:36:07.955Z,0
2017-05-15T01:37:09.206Z,0
2017-05-15T01:38:10.485Z,0
2017-05-15T01:39:11.847Z,0
2017-05-15T01:40:13.133Z,0
2017-05-15T01:41:14.367Z,0
2017-05-15T01:42:15.720Z,0
2017-05-15T01:43:17.008Z,0
2017-05-15T01:44:18.313Z,0
2017-05-15T01:45:19.566Z,0
2017-05-15T01:46:20.810Z,0
2017-05-15T01:47:22.058Z,0
2017-05-15T01:48:23.355Z,0
2017-05-15T01:49:24.626Z,0
2017-05-15T01:50:25.861Z,0
2017-05-15T01:51:27.143Z,0
2017-05-15T01:52:28.359Z,0
2017-05-15T01:53:29.740Z,0
2017-05-15T01:54:31.013Z,0
2017-05-15T01:55:32.268Z,0
2017-05-15T01:56:33.524Z,0
2017-05-15T01:57:34.795Z,0
2017-05-15T01:58:36.215Z,0
2017-05-15T01:59:37.492Z,0
2017-05-15T02:00:38.722Z,0
2017-05-15T02:01:39.983Z,0
2017-05-15T02:02:41.216Z,0
2017-05-15T02:03:42.473Z,0
2017-05-15T02:04:43.766Z,0
2017-05-15T02:05:45.060Z,0
2017-05-15T02:06:46.324Z,0
2017-05-15T02:07:47.601Z,0
2017-05-15T02:08:48.816Z,0
2017-05-15T02:09:50.136Z,0
2017-05-15T02:10:51.494Z,0
2017-05-15T02:11:52.753Z,0
2017-05-15T02:12:54.006Z,0
2017-05-15T02:13:55.399Z,0
2017-05-15T02:14:56.564Z,0
2017-05-15T02:15:57.897Z,0
2017-05-15T02:16:59.190Z,0
2017-05-15T02:18:00.464Z,0
2017-05-15T02:19:01.690Z,0
2017-05-15T02:20:03.005Z,0
2017-05-15T02:21:04.258Z,0
2017-05-15T02:22:05.556Z,0
2017-05-15T02:23:06.868Z,0
2017-05-15T02:24:08.105Z,0
2017-05-15T02:25:09.396Z,0
2017-05-15T02:26:10.589Z,0
2017-05-15T02:27:11.868Z,0
2017-05-15T02:28:13.301Z,0
2017-05-15T02:29:14.549Z,0
2017-05-15T02:30:15.812Z,0
2017-05-15T02:31:17.065Z,0
2017-05-15T02:32:18.456Z,0
2017-05-15T02:33:19.840Z,0
2017-05-15T02:34:21.105Z,0
2017-05-15T02:35:22.345Z,0
2017-05-15T02:36:23.590Z,0
2017-05-15T02:37:24.900Z,0
2017-05-15T02:38:26.199Z,0
2017-05-15T02:39:27.449Z,0
2017-05-15T02:40:28.762Z,0
2017-05-15T02:41:29.977Z,0
2017-05-15T02:42:31.214Z,0
2017-05-15T02:43:32.465Z,0
2017-05-15T02:44:33.718Z,0
2017-05-15T02:45:34.970Z,0
2017-05-15T02:46:36.210Z,0
2017-05-15T02:47:37.477Z,0
2017-05-15T02:48:38.752Z,0
2017-05-15T02:49:40.019Z,0
2017-05-15T02:50:41.345Z,0
2017-05-15T02:51:42.591Z,0
2017-05-15T02:52:43.880Z,0
2017-05-15T02:53:45.116Z,0
2017-05-15T02:54:46.410Z,4
2017-05-15T02:55:47.663Z,4
2017-05-15T02:56:48.955Z,4
2017-05-15T02:57:50.196Z,0
2017-05-15T02:58:51.496Z,4
2017-05-15T02:59:52.762Z,4
2017-05-15T03:00:54.019Z,4
2017-05-15T03:01:55.283Z,4
2017-05-15T03:02:56.673Z,4
2017-05-15T03:03:58.001Z,8
2017-05-15T03:04:59.260Z,8
2017-05-15T03:06:00.509Z,8
2017-05-15T03:07:01.737Z,12
2017-05-15T03:08:02.983Z,12
2017-05-15T03:09:04.266Z,12
2017-05-15T03:10:05.516Z,16
2017-05-15T03:11:06.817Z,16
2017-05-15T03:12:08.105Z,20
2017-05-15T03:13:09.373Z,20
2017-05-15T03:14:10.614Z,24
2017-05-15T03:15:11.857Z,24
2017-05-15T03:16:13.160Z,32
2017-05-15T03:17:14.406Z,36
2017-05-15T03:18:15.636Z,40
2017-05-15T03:19:16.913Z,44
2017-05-15T03:20:18.156Z,52
2017-05-15T03:21:19.429Z,56
2017-05-15T03:22:20.697Z,64
2017-05-15T03:23:21.957Z,72
2017-05-15T03:24:23.202Z,80
2017-05-15T03:25:24.499Z,88
2017-05-15T03:26:25.783Z,96
2017-05-15T03:27:27.027Z,108
2017-05-15T03:28:28.277Z,120
2017-05-15T03:29:29.551Z,132
2017-05-15T03:30:30.887Z,148
2017-05-15T03:31:32.199Z,160
2017-05-15T03:32:33.453Z,176
2017-05-15T03:33:34.677Z,192
2017-05-15T03:34:36.092Z,208
2017-05-15T03:35:37.391Z,228
2017-05-15T03:36:38.650Z,248
2017-05-15T03:37:39.903Z,264
2017-05-15T03:38:41.161Z,288
2017-05-15T03:39:42.544Z,308
2017-05-15T03:40:43.945Z,332
2017-05-15T03:41:45.257Z,352
2017-05-15T03:42:46.514Z,376
2017-05-15T03:43:47.777Z,404
2017-05-15T03:44:49.033Z,432
2017-05-15T03:45:50.291Z,456
2017-05-15T03:46:51.607Z,484
2017-05-15T03:47:52.871Z,512
2017-05-15T03:48:54.124Z,548
2017-05-15T03:49:55.369Z,584
2017-05-15T03:50:56.618Z,620
2017-05-15T03:51:57.922Z,664
2017-05-15T03:52:59.411Z,704
2017-05-15T03:54:00.637Z,740
2017-05-15T03:55:01.899Z,776
2017-05-15T03:56:03.182Z,816
2017-05-15T03:57:04.410Z,856
2017-05-15T03:58:05.658Z,900
2017-05-15T03:59:06.919Z,940
2017-05-15T04:00:08.142Z,984
2017-05-15T04:01:09.427Z,1020
2017-05-15T04:02:10.668Z,1064
2017-05-15T04:03:11.951Z,1100
2017-05-15T04:04:13.259Z,1140
2017-05-15T04:05:14.499Z,1180
2017-05-15T04:06:15.876Z,1220
2017-05-15T04:07:17.149Z,1260
2017-05-15T04:08:18.409Z,1300
2017-05-15T04:09:19.785Z,1344
2017-05-15T04:10:21.042Z,1380
2017-05-15T04:11:22.308Z,1424
2017-05-15T04:12:23.659Z,1468
2017-05-15T04:13:24.888Z,1512
2017-05-15T04:14:26.130Z,1556
2017-05-15T04:15:27.370Z,1596
2017-05-15T04:16:28.739Z,1640
2017-05-15T04:17:29.980Z,1680
2017-05-15T04:18:31.282Z,1728
2017-05-15T04:19:32.532Z,1768
2017-05-15T04:20:33.788Z,1804
2017-05-15T04:21:35.072Z,1840
2017-05-15T04:22:36.303Z,1892
2017-05-15T04:23:37.563Z,1972
2017-05-15T04:24:38.822Z,2056
2017-05-15T04:25:40.105Z,2072
2017-05-15T04:26:41.445Z,2152
2017-05-15T04:27:42.639Z,2296
2017-05-15T04:28:44.037Z,2344
2017-05-15T04:29:45.308Z,2284
2017-05-15T04:30:46.583Z,2280
2017-05-15T04:31:47.822Z,2280
2017-05-15T04:32:49.149Z,2288
2017-05-15T04:33:50.416Z,2312
2017-05-15T04:34:51.796Z,2352
2017-05-15T04:35:53.037Z,2400
2017-05-15T04:36:54.301Z,2452
2017-05-15T04:37:55.596Z,2532
2017-05-15T04:38:56.844Z,2596
2017-05-15T04:39:58.157Z,2624
2017-05-15T04:40:59.431Z,2624
2017-05-15T04:42:00.662Z,2656
2017-05-15T04:43:01.923Z,2696
2017-05-15T04:44:03.188Z,2740
2017-05-15T04:45:04.485Z,2780
2017-05-15T04:46:06.024Z,2820
2017-05-15T04:47:07.398Z,2880
2017-05-15T04:48:08.646Z,2928
2017-05-15T04:49:09.891Z,3004
2017-05-15T04:50:11.147Z,3072
2017-05-15T04:51:12.399Z,3140
2017-05-15T04:52:13.733Z,3200
2017-05-15T04:53:14.988Z,3356
2017-05-15T04:54:16.252Z,3540
2017-05-15T04:55:17.508Z,3592
2017-05-15T04:56:18.760Z,3672
2017-05-15T04:57:20.073Z,3688
2017-05-15T04:58:21.348Z,3676
2017-05-15T04:59:22.590Z,3752
2017-05-15T05:00:23.841Z,3980
2017-05-15T05:01:25.093Z,4212
2017-05-15T05:02:26.353Z,4428
2017-05-15T05:03:27.635Z,4972
2017-05-15T05:04:28.908Z,5724
2017-05-15T05:05:30.146Z,6064
2017-05-15T05:06:31.511Z,6064
2017-05-15T05:07:32.740Z,6360
2017-05-15T05:08:34.023Z,6768
2017-05-15T05:09:35.293Z,6988
2017-05-15T05:10:36.550Z,7076
2017-05-15T05:11:37.882Z,7268
2017-05-15T05:12:39.125Z,6640
2017-05-15T05:13:40.390Z,5668
2017-05-15T05:14:41.709Z,5548
2017-05-15T05:15:43.023Z,5856
2017-05-15T05:16:44.337Z,6684
2017-05-15T05:17:45.616Z,7780
2017-05-15T05:18:46.872Z,7708
2017-05-15T05:19:48.161Z,7204
2017-05-15T05:20:49.617Z,7808
2017-05-15T05:21:50.814Z,9164
2017-05-15T05:22:52.039Z,10832
2017-05-15T05:23:53.284Z,9944
2017-05-15T05:24:54.556Z,8100
2017-05-15T05:25:55.800Z,7692
2017-05-15T05:26:57.072Z,8172
2017-05-15T05:27:58.410Z,9232
2017-05-15T05:28:59.709Z,9924
2017-05-15T05:30:00.926Z,9772
2017-05-15T05:31:02.145Z,10780
2017-05-15T05:32:03.428Z,10976
2017-05-15T05:33:04.704Z,9356
2017-05-15T05:34:06.043Z,8968
2017-05-15T05:35:07.341Z,8476
2017-05-15T05:36:08.647Z,8560
2017-05-15T05:37:09.899Z,10356
2017-05-15T05:38:11.169Z,11860
2017-05-15T05:39:12.413Z,12968
2017-05-15T05:40:13.784Z,11616
2017-05-15T05:41:15.031Z,11484
2017-05-15T05:42:16.275Z,12992
2017-05-15T05:43:17.885Z,11784
2017-05-15T05:44:19.076Z,13752
2017-05-15T05:45:20.405Z,17312
2017-05-15T05:46:21.710Z,18016
2017-05-15T05:47:22.967Z,18240
2017-05-15T05:48:24.240Z,18912
2017-05-15T05:49:25.502Z,19168
2017-05-15T05:50:26.775Z,19840
2017-05-15T05:51:28.087Z,20032
2017-05-15T05:52:29.399Z,20416
2017-05-15T05:53:30.654Z,21088
2017-05-15T05:54:31.907Z,21376
2017-05-15T05:55:33.354Z,21856
2017-05-15T05:56:34.545Z,22016
2017-05-15T05:57:35.970Z,22496
2017-05-15T05:58:37.198Z,22528
2017-05-15T05:59:38.583Z,22240
2017-05-15T06:00:39.788Z,21440
2017-05-15T06:01:41.029Z,22496
2017-05-15T06:02:42.401Z,24000
2017-05-15T06:03:43.642Z,24288
2017-05-15T06:04:44.929Z,24384
2017-05-15T06:05:46.180Z,25472
2017-05-15T06:06:47.548Z,25568
2017-05-15T06:07:48.930Z,25888
2017-05-15T06:08:50.243Z,26240
2017-05-15T06:09:51.632Z,26304
2017-05-15T06:10:52.882Z,26912
2017-05-15T06:11:54.209Z,27520
2017-05-15T06:12:55.603Z,27744
2017-05-15T06:13:56.878Z,27712
2017-05-15T06:14:58.139Z,27584
2017-05-15T06:15:59.436Z,27680
2017-05-15T06:17:00.687Z,27744
2017-05-15T06:18:02.038Z,28896
2017-05-15T06:19:03.319Z,29792
2017-05-15T06:20:04.568Z,29920
2017-05-15T06:21:05.843Z,30208
2017-05-15T06:22:07.220Z,30176
2017-05-15T06:23:08.509Z,29600
2017-05-15T06:24:09.892Z,30304
2017-05-15T06:25:11.183Z,31104
2017-05-15T06:26:12.460Z,31680
2017-05-15T06:27:13.738Z,30720
2017-05-15T06:28:14.992Z,30784
2017-05-15T06:29:16.265Z,34240
2017-05-15T06:30:17.587Z,34880
2017-05-15T06:31:18.825Z,33888
2017-05-15T06:32:20.084Z,34688
2017-05-15T06:33:21.351Z,36384
2017-05-15T06:34:22.638Z,36672
2017-05-15T06:35:23.982Z,35136
2017-05-15T06:36:25.258Z,35840
2017-05-15T06:37:26.528Z,35520
2017-05-15T06:38:27.830Z,34720
2017-05-15T06:39:29.068Z,34656
2017-05-15T06:40:30.369Z,34976
2017-05-15T06:41:31.656Z,34688
2017-05-15T06:42:33.058Z,34784
2017-05-15T06:43:34.312Z,35296
2017-05-15T06:44:35.598Z,36160
2017-05-15T06:45:36.867Z,36544
2017-05-15T06:46:38.165Z,36800
2017-05-15T06:47:39.477Z,36704
2017-05-15T06:48:40.745Z,37952
2017-05-15T06:49:42.047Z,39520
2017-05-15T06:50:43.349Z,39008
2017-05-15T06:51:44.685Z,40640
2017-05-15T06:52:46.178Z,43168
2017-05-15T06:53:47.483Z,43008
2017-05-15T06:54:48.735Z,44256
2017-05-15T06:55:50.012Z,47936
2017-05-15T06:56:51.291Z,47136
2017-05-15T06:57:52.559Z,46336
2017-05-15T06:58:53.925Z,47168
2017-05-15T06:59:55.204Z,48192
2017-05-15T07:00:56.467Z,47808
2017-05-15T07:01:57.792Z,46368
2017-05-15T07:02:59.020Z,46848
2017-05-15T07:04:00.424Z,48640
2017-05-15T07:05:01.681Z,48928
2017-05-15T07:06:03.002Z,49600
2017-05-15T07:07:04.240Z,51968
2017-05-15T07:08:05.514Z,50880
2017-05-15T07:09:06.759Z,51616
2017-05-15T07:10:08.089Z,52128
2017-05-15T07:11:09.373Z,52960
2017-05-15T07:12:10.666Z,51776
2017-05-15T07:13:11.927Z,52352
2017-05-15T07:14:13.194Z,53568
2017-05-15T07:15:14.443Z,54688
2017-05-15T07:16:15.749Z,54272
2017-05-15T07:17:17.085Z,55648
2017-05-15T07:18:18.378Z,55616
2017-05-15T07:19:19.608Z,56288
2017-05-15T07:20:20.902Z,57120
2017-05-15T07:21:22.163Z,57440
2017-05-15T07:22:23.466Z,58464
2017-05-15T07:23:24.736Z,58624
2017-05-15T07:24:25.996Z,58848
2017-05-15T07:25:27.335Z,60192
2017-05-15T07:26:28.710Z,60256
2017-05-15T07:27:30.034Z,61056
2017-05-15T07:28:31.314Z,64352
2017-05-15T07:29:32.588Z,64128
2017-05-15T07:30:33.858Z,62400
2017-05-15T07:31:35.144Z,59456
2017-05-15T07:32:36.425Z,59328
2017-05-15T07:33:37.762Z,62784
2017-05-15T07:34:39.174Z,62848
2017-05-15T07:35:40.428Z,61504
2017-05-15T07:36:41.719Z,59328
2017-05-15T07:37:43.059Z,55104
2017-05-15T07:38:44.299Z,57696
2017-05-15T07:39:45.615Z,63264
2017-05-15T07:40:46.888Z,65408
2017-05-15T07:41:48.179Z,61696
2017-05-15T07:42:49.536Z,53824
2017-05-15T07:43:50.721Z,48096
2017-05-15T07:44:52.108Z,46048
2017-05-15T07:45:53.385Z,44384
2017-05-15T07:46:54.644Z,40992
2017-05-15T07:47:55.902Z,40352
2017-05-15T07:48:57.165Z,42272
2017-05-15T07:49:58.458Z,43168
2017-05-15T07:50:59.787Z,42752
2017-05-15T07:52:01.159Z,44288
2017-05-15T07:53:02.469Z,48544
2017-05-15T07:54:03.766Z,53056
2017-05-15T07:55:05.041Z,55136
2017-05-15T07:56:06.389Z,56544
2017-05-15T07:57:07.792Z,59232
2017-05-15T07:58:09.126Z,61184
2017-05-15T07:59:10.363Z,59808
2017-05-15T08:00:11.725Z,61696
2017-05-15T08:01:13.101Z,63776
2017-05-15T08:02:14.420Z,63296
2017-05-15T08:03:15.806Z,63680
2017-05-15T08:04:17.068Z,60672
2017-05-15T08:05:18.341Z,59840
2017-05-15T08:06:19.631Z,67104
2017-05-15T08:07:20.924Z,72640
2017-05-15T08:08:22.217Z,72480
2017-05-15T08:09:23.541Z,68352
2017-05-15T08:10:24.776Z,70944
2017-05-15T08:11:26.112Z,73056
2017-05-15T08:12:27.493Z,75680
2017-05-15T08:13:28.768Z,74336
2017-05-15T08:14:30.027Z,71456
2017-05-15T08:15:31.298Z,71136
2017-05-15T08:16:32.649Z,70336
2017-05-15T08:17:34.062Z,68960
2017-05-15T08:18:35.407Z,68256
2017-05-15T08:19:36.641Z,63808
2017-05-15T08:20:37.924Z,65376
2017-05-15T08:21:39.212Z,66912
2017-05-15T08:22:40.474Z,67680
2017-05-15T08:23:41.890Z,69152
2017-05-15T08:24:43.168Z,70720
2017-05-15T08:25:44.409Z,72224
2017-05-15T08:26:45.751Z,74112
2017-05-15T08:27:47.016Z,75648
2017-05-15T08:28:48.360Z,71936
2017-05-15T08:29:49.662Z,71424
2017-05-15T08:30:50.919Z,74592
2017-05-15T08:31:52.178Z,75744
2017-05-15T08:32:53.465Z,75936
2017-05-15T08:33:54.729Z,77056
2017-05-15T08:34:56.095Z,76800
2017-05-15T08:35:57.410Z,75456
2017-05-15T08:36:58.679Z,74368
2017-05-15T08:37:59.965Z,78880
2017-05-15T08:39:01.248Z,81088
2017-05-15T08:40:02.516Z,82592
2017-05-15T08:41:03.936Z,78816
2017-05-15T08:42:05.203Z,76448
2017-05-15T08:43:06.482Z,78400
2017-05-15T08:44:07.817Z,79264
2017-05-15T08:45:09.206Z,77952
2017-05-15T08:46:10.442Z,76448
2017-05-15T08:47:11.742Z,75648
2017-05-15T08:48:13.005Z,76544
2017-05-15T08:49:14.272Z,76576
2017-05-15T08:50:15.542Z,72800
2017-05-15T08:51:16.806Z,75456
2017-05-15T08:52:18.067Z,77856
2017-05-15T08:53:19.344Z,78432
2017-05-15T08:54:20.625Z,78592
2017-05-15T08:55:21.871Z,78464
2017-05-15T08:56:23.131Z,79744
2017-05-15T08:57:24.450Z,76704
2017-05-15T08:58:25.755Z,79456
2017-05-15T08:59:26.984Z,82912
2017-05-15T09:00:28.256Z,84608
2017-05-15T09:01:29.534Z,84544
2017-05-15T09:02:30.817Z,84064
2017-05-15T09:03:32.098Z,82784
2017-05-15T09:04:33.425Z,44640
2017-05-15T09:05:34.698Z,77600
2017-05-15T09:06:35.945Z,79296
2017-05-15T09:07:37.227Z,80032
2017-05-15T09:08:38.491Z,83072
2017-05-15T09:09:39.766Z,76768
2017-05-15T09:10:41.037Z,89440
2017-05-15T09:11:42.370Z,72928
2017-05-15T09:12:43.589Z,86016
2017-05-15T09:13:44.866Z,86368
2017-05-15T09:14:46.129Z,79008
2017-05-15T09:15:47.468Z,82144
2017-05-15T09:16:48.751Z,84704
2017-05-15T09:17:50.004Z,82400
2017-05-15T09:18:51.261Z,92064
2017-05-15T09:19:52.519Z,88192
2017-05-15T09:20:53.811Z,91456
2017-05-15T09:21:55.075Z,89856
2017-05-15T09:22:56.420Z,81600
2017-05-15T09:23:57.661Z,89824
2017-05-15T09:24:58.985Z,80512
2017-05-15T09:26:00.226Z,83904
2017-05-15T09:27:01.560Z,84960
2017-05-15T09:28:02.855Z,84992
2017-05-15T09:29:04.157Z,93184
2017-05-15T09:30:05.430Z,88544
2017-05-15T09:31:06.716Z,87776
2017-05-15T09:32:08.028Z,89728
2017-05-15T09:33:09.276Z,84704
2017-05-15T09:34:10.568Z,85536
2017-05-15T09:35:11.842Z,88064
2017-05-15T09:36:13.116Z,91488
2017-05-15T09:37:14.395Z,83744
2017-05-15T09:38:15.672Z,94432
2017-05-15T09:39:16.936Z,89440
2017-05-15T09:40:18.209Z,94784
2017-05-15T09:41:19.480Z,96992
2017-05-15T09:42:20.736Z,90976
2017-05-15T09:43:22.024Z,87456
2017-05-15T09:44:23.301Z,91968
2017-05-15T09:45:24.632Z,92960
2017-05-15T09:46:25.930Z,90240
2017-05-15T09:47:27.204Z,88000
2017-05-15T09:48:28.495Z,91424
2017-05-15T09:49:29.816Z,89088
2017-05-15T09:50:31.230Z,89088
2017-05-15T09:51:32.414Z,92672
2017-05-15T09:52:33.685Z,100544
2017-05-15T09:53:34.948Z,93440
2017-05-15T09:54:36.221Z,91680
2017-05-15T09:55:37.594Z,93728
2017-05-15T09:56:38.917Z,93888
2017-05-15T09:57:40.191Z,69152
2017-05-15T09:58:41.504Z,95904
2017-05-15T09:59:42.786Z,88256
2017-05-15T10:00:44.063Z,89088
2017-05-15T10:01:45.362Z,91200
2017-05-15T10:02:46.609Z,91680
2017-05-15T10:03:47.972Z,43296
2017-05-15T10:04:49.241Z,26752
2017-05-15T10:05:50.525Z,57888
2017-05-15T10:06:51.838Z,78464
2017-05-15T10:07:53.134Z,78688
2017-05-15T10:08:54.403Z,79616
2017-05-15T10:09:55.713Z,78272
2017-05-15T10:10:57.014Z,81856
2017-05-15T10:11:58.283Z,84384
2017-05-15T10:12:59.596Z,87552
2017-05-15T10:14:00.873Z,14888
2017-05-15T10:15:02.180Z,10088
2017-05-15T10:16:03.471Z,11184
2017-05-15T10:17:04.729Z,12904
2017-05-15T10:18:06.019Z,11436
2017-05-15T10:19:07.326Z,12116
2017-05-15T10:20:08.617Z,19648
2017-05-15T10:21:09.934Z,15672
2017-05-15T10:22:11.243Z,14928
2017-05-15T10:23:12.494Z,15712
2017-05-15T10:24:13.740Z,25952
2017-05-15T10:25:15.152Z,86048
2017-05-15T10:26:16.411Z,83232
2017-05-15T10:27:17.789Z,81152
2017-05-15T10:28:19.096Z,83776
2017-05-15T10:29:20.386Z,87584
2017-05-15T10:30:21.703Z,88736
2017-05-15T10:31:22.981Z,83968
2017-05-15T10:32:24.235Z,76544
2017-05-15T10:33:25.540Z,38784
2017-05-15T10:34:26.908Z,12304
2017-05-15T10:35:28.195Z,11552
2017-05-15T10:36:29.519Z,11532
2017-05-15T10:37:30.786Z,10724
2017-05-15T10:38:32.039Z,10000
2017-05-15T10:39:33.306Z,10200
2017-05-15T10:40:34.568Z,11932
2017-05-15T10:41:35.854Z,12464
2017-05-15T10:42:37.204Z,12476
2017-05-15T10:43:38.470Z,12824
2017-05-15T10:44:39.701Z,12076
2017-05-15T10:45:40.959Z,11180
2017-05-15T10:46:42.223Z,10512
2017-05-15T10:47:43.524Z,9988
2017-05-15T10:48:44.791Z,9120
2017-05-15T10:49:46.158Z,8600
2017-05-15T10:50:47.414Z,8172
2017-05-15T10:51:48.718Z,8248
2017-05-15T10:52:49.969Z,9080
2017-05-15T10:53:51.275Z,9856
2017-05-15T10:54:52.667Z,9340
2017-05-15T10:55:53.953Z,8976
2017-05-15T10:56:55.201Z,8580
2017-05-15T10:57:56.481Z,8312
2017-05-15T10:58:57.758Z,7928
2017-05-15T10:59:59.153Z,7704
2017-05-15T11:01:00.439Z,7588
2017-05-15T11:02:01.733Z,7376
2017-05-15T11:03:03.016Z,7468
2017-05-15T11:04:04.303Z,7552
2017-05-15T11:05:05.554Z,7512
2017-05-15T11:06:06.803Z,7436
2017-05-15T11:07:08.063Z,7360
2017-05-15T11:08:09.313Z,7308
2017-05-15T11:09:10.613Z,7436
2017-05-15T11:10:11.867Z,7544
2017-05-15T11:11:13.169Z,7472
2017-05-15T11:12:14.438Z,7448
2017-05-15T11:13:15.675Z,7236
2017-05-15T11:14:16.923Z,7416
2017-05-15T11:15:18.192Z,7536
2017-05-15T11:16:19.558Z,7012
2017-05-15T11:17:20.844Z,6668
2017-05-15T11:18:22.194Z,6584
2017-05-15T11:19:23.476Z,6756
2017-05-15T11:20:24.749Z,6620
2017-05-15T11:21:26.026Z,6384
2017-05-15T11:22:27.332Z,6128
2017-05-15T11:23:28.634Z,5956
2017-05-15T11:24:29.931Z,5796
2017-05-15T11:25:31.223Z,5672
2017-05-15T11:26:32.501Z,5616
2017-05-15T11:27:33.773Z,5304
2017-05-15T11:28:35.053Z,5004
2017-05-15T11:29:36.304Z,4996
2017-05-15T11:30:37.564Z,5444
2017-05-15T11:31:38.819Z,5276
2017-05-15T11:32:40.128Z,6124
2017-05-15T11:33:41.401Z,6548
2017-05-15T11:34:42.720Z,6236
2017-05-15T11:35:44.066Z,5816
2017-05-15T11:36:45.314Z,5816
2017-05-15T11:37:46.606Z,5796
2017-05-15T11:38:47.878Z,5924
2017-05-15T11:39:49.132Z,6228
2017-05-15T11:40:50.538Z,6184
2017-05-15T11:41:51.834Z,6512
2017-05-15T11:42:53.137Z,6836
2017-05-15T11:43:54.427Z,7364
2017-05-15T11:44:55.758Z,7304
2017-05-15T11:45:57.113Z,6592
2017-05-15T11:46:58.524Z,5964
2017-05-15T11:47:59.814Z,5460
2017-05-15T11:49:01.088Z,5148
2017-05-15T11:50:02.372Z,4828
2017-05-15T11:51:03.713Z,4680
2017-05-15T11:52:04.957Z,4560
2017-05-15T11:53:06.268Z,4452
2017-05-15T11:54:07.537Z,4476
2017-05-15T11:55:08.877Z,4608
2017-05-15T11:56:10.155Z,4732
2017-05-15T11:57:11.406Z,4912
2017-05-15T11:58:12.687Z,5060
2017-05-15T11:59:13.986Z,4700
2017-05-15T12:00:15.221Z,4488
2017-05-15T12:01:16.486Z,4388
2017-05-15T12:02:17.780Z,4352
2017-05-15T12:03:19.161Z,4356
2017-05-15T12:04:20.328Z,4388
2017-05-15T12:05:21.661Z,4428
2017-05-15T12:06:22.908Z,4428
2017-05-15T12:07:24.206Z,4484
2017-05-15T12:08:25.590Z,4532
2017-05-15T12:09:26.895Z,4748
2017-05-15T12:10:28.179Z,4964
2017-05-15T12:11:29.393Z,5060
2017-05-15T12:12:30.663Z,5436
2017-05-15T12:13:31.905Z,6136
2017-05-15T12:14:33.338Z,6624
2017-05-15T12:15:34.599Z,7160
2017-05-15T12:16:35.993Z,7852
2017-05-15T12:17:37.254Z,8000
2017-05-15T12:18:38.544Z,7772
2017-05-15T12:19:39.931Z,8432
2017-05-15T12:20:41.184Z,8624
2017-05-15T12:21:42.480Z,8700
2017-05-15T12:22:43.750Z,8892
2017-05-15T12:23:45.013Z,8936
2017-05-15T12:24:46.294Z,8768
2017-05-15T12:25:47.561Z,9156
2017-05-15T12:26:48.820Z,9224
2017-05-15T12:27:50.074Z,8876
2017-05-15T12:28:51.331Z,9216
2017-05-15T12:29:52.608Z,9448
2017-05-15T12:30:53.928Z,9020
2017-05-15T12:31:55.208Z,8868
2017-05-15T12:32:56.493Z,8608
2017-05-15T12:33:57.911Z,8304
2017-05-15T12:34:59.170Z,8380
2017-05-15T12:36:00.437Z,8536
2017-05-15T12:37:01.708Z,8896
2017-05-15T12:38:03.106Z,9616
2017-05-15T12:39:04.353Z,10100
2017-05-15T12:40:05.647Z,10332
2017-05-15T12:41:06.954Z,9908
2017-05-15T12:42:08.176Z,8704
2017-05-15T12:43:09.483Z,7852
2017-05-15T12:44:10.703Z,7504
2017-05-15T12:45:11.952Z,7520
2017-05-15T12:46:13.231Z,7848
2017-05-15T12:47:14.486Z,7928
2017-05-15T12:48:15.763Z,7900
2017-05-15T12:49:17.042Z,7744
2017-05-15T12:50:18.498Z,7316
2017-05-15T12:51:19.866Z,7292
2017-05-15T12:52:21.135Z,7064
2017-05-15T12:53:22.387Z,7192
2017-05-15T12:54:23.709Z,7356
2017-05-15T12:55:24.941Z,7580
2017-05-15T12:56:26.319Z,7708
2017-05-15T12:57:27.728Z,7444
2017-05-15T12:58:29.021Z,6328
2017-05-15T12:59:30.336Z,5992
2017-05-15T13:00:31.620Z,5932
2017-05-15T13:01:32.912Z,6268
2017-05-15T13:02:34.260Z,6028
2017-05-15T13:03:35.538Z,5752
2017-05-15T13:04:36.939Z,5892
2017-05-15T13:05:38.266Z,6364
2017-05-15T13:06:39.628Z,6872
2017-05-15T13:07:40.968Z,7556
2017-05-15T13:08:42.182Z,8368
2017-05-15T13:09:43.447Z,8916
2017-05-15T13:10:44.744Z,8968
2017-05-15T13:11:46.134Z,9116
2017-05-15T13:12:47.430Z,8876
2017-05-15T13:13:48.637Z,8508
2017-05-15T13:14:50.016Z,8260
2017-05-15T13:15:51.198Z,8512
2017-05-15T13:16:52.499Z,8664
2017-05-15T13:17:53.881Z,8784
2017-05-15T13:18:55.180Z,8232
2017-05-15T13:19:56.447Z,8176
2017-05-15T13:20:57.839Z,7632
2017-05-15T13:21:58.994Z,7184
2017-05-15T13:23:00.353Z,6440
2017-05-15T13:24:01.644Z,6104
2017-05-15T13:25:02.907Z,5800
2017-05-15T13:26:04.175Z,5624
2017-05-15T13:27:05.486Z,5344
2017-05-15T13:28:06.747Z,5548
2017-05-15T13:29:08.145Z,5692
2017-05-15T13:30:09.405Z,6132
2017-05-15T13:31:10.685Z,6588
2017-05-15T13:32:11.942Z,6884
2017-05-15T13:33:13.182Z,7208
2017-05-15T13:34:14.581Z,6768
2017-05-15T13:35:15.927Z,6332
2017-05-15T13:36:17.171Z,6072
2017-05-15T13:37:18.468Z,6016
2017-05-15T13:38:19.738Z,5968
2017-05-15T13:39:21.008Z,6356
2017-05-15T13:40:22.366Z,6560
2017-05-15T13:41:23.746Z,6388
2017-05-15T13:42:24.993Z,6324
2017-05-15T13:43:26.234Z,6520
2017-05-15T13:44:27.532Z,6156
2017-05-15T13:45:28.817Z,5896